createdAt,value
2022-12-27T00:03:54.354Z,0.09
2022-12-27T00:09:57.056Z,0.72
2022-12-27T00:16:07.576Z,1.14
2022-12-27T00:22:13.062Z,1.07
2022-12-27T00:28:15.492Z,0.98
2022-12-27T00:34:17.967Z,0.30
2022-12-27T00:40:20.419Z,0.49
2022-12-27T00:46:22.959Z,0.03
2022-12-27T00:52:25.372Z,0.29
2022-12-27T00:58:27.848Z,0.40
2022-12-27T01:04:30.291Z,0.97
2022-12-27T01:10:42.689Z,0.67
2022-12-27T01:16:45.328Z,0.44
2022-12-27T01:22:47.714Z,1.19
2022-12-27T01:28:52.201Z,1.11
2022-12-27T01:34:57.488Z,1.06
2022-12-27T01:41:00.197Z,0.71
2022-12-27T01:47:04.673Z,0.24
2022-12-27T01:53:19.199Z,1.53
2022-12-27T01:59:21.634Z,0.04
2022-12-27T02:05:26.145Z,1.27
2022-12-27T02:11:53.766Z,1.31
2022-12-27T02:17:57.199Z,0.35
2022-12-27T02:24:14.743Z,1.55
2022-12-27T02:30:20.239Z,1.38
2022-12-27T02:36:29.739Z,1.28
2022-12-27T02:42:52.240Z,1.47
2022-12-27T02:49:17.792Z,1.51
2022-12-27T02:55:30.281Z,1.47
2022-12-27T03:02:42.168Z,1.28
2022-12-27T03:09:03.595Z,1.21
2022-12-27T03:15:44.253Z,1.75
2022-12-27T03:22:08.734Z,1.28
2022-12-27T03:28:35.244Z,1.68
2022-12-27T03:34:50.793Z,1.46
2022-12-27T03:41:20.381Z,1.62
2022-12-27T03:47:32.914Z,1.72
2022-12-27T03:53:40.381Z,1.60
2022-12-27T03:59:43.863Z,0.20
2022-12-27T04:05:48.875Z,1.19
2022-12-27T04:12:09.836Z,1.49
2022-12-27T04:18:30.370Z,1.14
2022-12-27T04:24:52.105Z,1.62
2022-12-27T04:31:13.433Z,1.27
2022-12-27T04:37:22.915Z,1.10
2022-12-27T04:43:43.447Z,1.26
2022-12-27T04:50:05.001Z,1.33
2022-12-27T04:56:10.467Z,1.31
2022-12-27T05:02:12.997Z,1.06
2022-12-27T05:08:36.464Z,1.13
2022-12-27T05:14:45.541Z,1.29
2022-12-27T05:20:50.432Z,1.60
2022-12-27T05:26:56.981Z,1.58
2022-12-27T05:32:59.361Z,1.55
2022-12-27T05:39:02.847Z,1.09
2022-12-27T05:45:05.327Z,2.00
2022-12-27T05:51:18.881Z,1.45
2022-12-27T05:57:20.645Z,2.12
2022-12-27T06:03:23.864Z,2.26
2022-12-27T06:09:28.960Z,1.94
2022-12-27T06:15:31.690Z,1.59
2022-12-27T06:21:34.194Z,2.06
2022-12-27T06:27:38.954Z,2.21
2022-12-27T06:33:40.898Z,2.13
2022-12-27T06:39:43.605Z,2.07
2022-12-27T06:45:46.082Z,2.15
2022-12-27T06:51:54.155Z,1.89
2022-12-27T06:58:01.002Z,1.90
2022-12-27T07:04:03.479Z,2.37
2022-12-27T07:10:11.757Z,2.17
2022-12-27T07:16:18.512Z,1.62
2022-12-27T07:22:20.911Z,2.42
2022-12-27T07:28:23.360Z,2.33
2022-12-27T07:34:26.852Z,1.86
2022-12-27T07:40:32.352Z,2.55
2022-12-27T07:46:35.786Z,2.49
2022-12-27T07:52:40.581Z,2.44
2022-12-27T07:58:51.463Z,2.64
2022-12-27T08:04:56.264Z,2.39
2022-12-27T08:11:05.567Z,2.56
2022-12-27T08:17:36.283Z,1.28
2022-12-27T08:23:38.740Z,3.23
2022-12-27T08:29:45.232Z,3.08
2022-12-27T08:35:55.028Z,2.95
2022-12-27T08:42:03.211Z,3.15
2022-12-27T08:48:06.714Z,3.37
2022-12-27T08:54:12.185Z,3.58
2022-12-27T09:00:15.445Z,3.32
2022-12-27T09:06:22.319Z,3.06
2022-12-27T09:12:24.407Z,3.94
2022-12-27T09:18:27.041Z,4.22
2022-12-27T09:24:31.775Z,4.34
2022-12-27T09:30:34.987Z,4.41
2022-12-27T09:36:47.058Z,4.35
2022-12-27T09:43:44.215Z,4.86
2022-12-27T09:49:54.687Z,4.72
2022-12-27T09:56:01.151Z,4.55
2022-12-27T10:02:04.227Z,5.47
2022-12-27T10:08:07.071Z,5.62
2022-12-27T10:14:09.742Z,6.17
2022-12-27T10:20:49.139Z,5.74
2022-12-27T10:26:55.596Z,6.17
2022-12-27T10:32:58.104Z,6.52
2022-12-27T10:39:07.586Z,6.63
2022-12-27T10:45:37.160Z,6.48
2022-12-27T10:51:44.640Z,6.76
2022-12-27T10:57:53.806Z,6.70
2022-12-27T11:04:25.977Z,6.26
2022-12-27T11:10:34.230Z,6.91
2022-12-27T11:16:37.765Z,7.43
2022-12-27T11:22:54.267Z,7.63
2022-12-27T11:29:02.777Z,8.55
2022-12-27T11:35:05.221Z,8.78
2022-12-27T11:41:14.682Z,7.53
2022-12-27T11:47:34.211Z,7.21
2022-12-27T11:54:15.116Z,7.45
2022-12-27T12:00:32.401Z,7.32
2022-12-27T12:06:57.943Z,7.20
2022-12-27T12:13:36.675Z,7.14
2022-12-27T12:20:08.143Z,7.14
2022-12-27T12:26:27.683Z,7.20
2022-12-27T12:33:00.251Z,7.26
2022-12-27T12:39:17.768Z,7.26
2022-12-27T12:45:28.275Z,7.32
2022-12-27T12:51:46.791Z,7.21
2022-12-27T12:58:41.711Z,7.27
2022-12-27T13:05:23.374Z,7.32
2022-12-27T13:11:38.807Z,7.19
2022-12-27T13:18:03.473Z,7.05
2022-12-27T13:24:17.616Z,6.79
2022-12-27T13:30:56.227Z,7.17
2022-12-27T13:37:16.565Z,7.05
2022-12-27T13:43:19.253Z,6.99
2022-12-27T13:49:36.759Z,6.90
2022-12-27T13:56:43.240Z,6.74
2022-12-27T14:02:47.117Z,6.64
2022-12-27T14:09:06.517Z,6.57
2022-12-27T14:15:15.972Z,6.46
2022-12-27T14:21:40.531Z,6.35
2022-12-27T14:28:01.027Z,6.30
2022-12-27T14:34:16.814Z,5.99
2022-12-27T14:40:18.632Z,5.90
2022-12-27T14:46:46.651Z,5.87
2022-12-27T15:00:07.876Z,5.51
2022-12-27T15:06:31.090Z,5.25
2022-12-27T15:13:29.896Z,5.39
2022-12-27T15:19:56.620Z,5.18
2022-12-27T15:26:11.471Z,5.10
2022-12-27T15:32:24.742Z,5.01
2022-12-27T15:38:36.206Z,5.00
2022-12-27T15:45:17.765Z,4.86
2022-12-27T15:51:51.430Z,4.73
2022-12-27T15:58:13.509Z,4.76
2022-12-27T16:04:53.868Z,4.75
2022-12-27T16:11:00.084Z,4.68
2022-12-27T16:17:26.877Z,4.05
2022-12-27T16:23:57.249Z,4.63
2022-12-27T16:30:00.711Z,3.66
2022-12-27T16:36:25.623Z,4.54
2022-12-27T16:42:57.852Z,4.21
2022-12-27T16:49:09.994Z,4.35
2022-12-27T16:56:03.198Z,3.52
2022-12-27T17:13:23.828Z,3.89
2022-12-27T17:20:03.469Z,3.85
2022-12-27T17:26:46.654Z,3.81
2022-12-27T17:32:57.807Z,3.76
2022-12-27T17:39:06.273Z,3.66
2022-12-27T17:45:22.762Z,3.56
2022-12-27T17:51:34.561Z,3.21
2022-12-27T17:57:54.806Z,3.35
2022-12-27T18:03:57.263Z,3.20
2022-12-27T18:10:07.758Z,3.33
2022-12-27T18:16:29.764Z,3.32
2022-12-27T18:22:31.554Z,3.06
2022-12-27T18:28:42.451Z,2.61
2022-12-27T18:34:59.795Z,3.54
2022-12-27T18:41:39.472Z,3.26
2022-12-27T18:47:48.909Z,2.50
2022-12-27T18:53:51.399Z,2.73
2022-12-27T19:00:26.025Z,2.13
2022-12-27T19:12:53.005Z,2.67
2022-12-27T19:18:59.504Z,2.71
2022-12-27T19:25:05.992Z,1.98
2022-12-27T19:31:28.208Z,2.72
2022-12-27T19:37:33.975Z,2.86
2022-12-27T19:43:40.648Z,2.64
2022-12-27T19:49:45.345Z,2.56
2022-12-27T19:55:49.385Z,2.26
2022-12-27T20:01:52.026Z,2.51
2022-12-27T20:07:57.298Z,2.06
2022-12-27T20:14:00.781Z,1.54
2022-12-27T20:20:10.614Z,2.15
2022-12-27T20:26:14.743Z,1.28
2022-12-27T20:32:17.203Z,2.01
2022-12-27T20:38:19.685Z,2.17
2022-12-27T20:44:22.115Z,1.83
2022-12-27T20:50:26.754Z,1.25
2022-12-27T20:56:29.212Z,2.08
2022-12-27T21:02:31.688Z,2.01
2022-12-27T21:08:40.354Z,1.33
2022-12-27T21:14:48.486Z,1.95
2022-12-27T21:20:50.926Z,2.32
2022-12-27T21:26:56.590Z,2.41
2022-12-27T21:32:58.915Z,1.48
2022-12-27T21:39:04.922Z,2.12
2022-12-27T21:45:12.299Z,2.07
2022-12-27T21:51:19.404Z,2.08
2022-12-27T21:57:21.849Z,2.10
2022-12-27T22:03:26.521Z,2.14
2022-12-27T22:09:28.779Z,2.15
2022-12-27T22:15:31.269Z,2.15
2022-12-27T22:21:35.732Z,2.14
2022-12-27T22:27:40.222Z,2.29
2022-12-27T22:33:42.650Z,2.04
2022-12-27T22:39:52.601Z,1.89
2022-12-27T22:45:55.599Z,2.24
2022-12-27T22:51:58.116Z,2.24
2022-12-27T22:58:00.528Z,2.10
2022-12-27T23:04:06.074Z,1.60
2022-12-27T23:10:08.175Z,1.29
2022-12-27T23:16:10.724Z,1.99
2022-12-27T23:22:13.393Z,1.64
2022-12-27T23:28:17.855Z,1.84
2022-12-27T23:34:27.083Z,0.76
2022-12-27T23:40:31.843Z,0.75
2022-12-27T23:46:35.291Z,1.35
2022-12-27T23:52:37.728Z,1.55
2022-12-27T23:58:40.186Z,1.48
